Funds performance table by strategy

help icon
fund name 1 mth 3 mth 12 mthsort icon ytd Inception Net assets Return Date
Altegris Winton Futures Fund LP Class A 4% 7% 11% 11% 8% 545M 2014-11-30
Credence Oriental QDII Program 0% 10% 11% 11% 27% - 2014-11-30
Pictet Security-I USD 3% 3% 11% 7% 8% 550M 2014-11-30
GLG European Equity I EUR 4% 4% 11% 9% 1% 73M 2014-11-30
JB BF Euro Government-EUR C 1% 1% 11% 12% 4% 45M 2014-11-30
Coronation Top 20 B 2% -1% 11% 7% 17% 4295M 2014-11-30
BlackRock PA Municipal Bond Instl 0% 1% 11% 11% 5% - 2014-11-30
JPM America Eq X (acc)-USD 0% 1% 11% 9% 8% 1378M 2014-11-30
Ofi Palmares America I NC 1% 6% 11% 5% 7% - 2014-07-31
Schroder ISF Glbl Prop Sec I EUR Hdg 1% 1% 11% 12% 5% 355M 2014-11-30
ComStage iBoxx€ Grmny Cov Cpd 7-10TR ETF 1% 2% 11% 12% 7% 14M 2014-11-30
Vanguard Small-Cap Value ETF 1% 0% 11% 8% 9% - 2014-11-30
Henderson Asia Pacific Abs Ret USD C -2% -1% 11% 3% 0% - 2013-06-30
CFS FC W PSup-AMP Capital W Glb Prop Sec 1% -4% 11% 6% 10% - 2013-07-31
DB Advisors Emerg Mkt Eq-Passive ID(EUR) 2% 0% 11% 14% 6% 172M 2014-11-30
iShares MSCI Japan CHF Hedged 5% 11% 11% 8% 33% 550M 2014-11-30
Odey Opportunity fund EUR B 0% 2% 11% 6% 0% 55M 2010-10-31
Parvest Bond Europe I 0% 1% 11% 7% 4% 181M 2012-11-30
JPM Global Convert EUR C GBP Hdgd Inc 0% 2% 11% 2% 11% 1894M 2014-04-30
Amundi Actions Emergents I 1% 3% 11% 16% 1% 598M 2014-10-31
WIP Emerg Mkts Fix Inc I (USD) 0% 0% 11% 10% 7% 67M 2014-11-30
Janus US Venture I USD Inc 2% 5% 11% 7% 10% 260M 2014-11-30
Janus US Venture I USD 2% 5% 11% 7% 5% 260M 2014-11-30
Contravisory Strategic Equity Instl 2% 2% 11% 8% 10% - 2014-11-30
AXA WF Euro Government Bonds I-C 1% 1% 11% 12% 5% 336M 2014-11-30
Lion SZSE SME Equal Weight ETF Fund 0% 6% 11% 13% 14% 7M 2014-11-30
Commerzbank ETN 3x HSIF Daily Long 0% -4% 11% 23% 17% 0M 2014-11-30
BMO Global Low Volatility Equity I 0% 0% 11% 10% 13% - 2014-11-30
Henderson Horizon Glbl Prpty Eqs I2 EURH 1% 0% 11% 11% 12% 794M 2014-11-30
JPM Emerging Mkts Opps I (acc)-EUR 1% 1% 11% 14% 5% 2329M 2014-11-30

All our data is licensed from Morningstar UK Ltd. Important legal information